createdAt,value
2019-04-16T00:02:12.084Z,75764.66
2019-04-16T00:04:56.736Z,75761.73
2019-04-16T00:07:43.098Z,75757.27
2019-04-16T00:10:19.997Z,75748.70
2019-04-16T00:13:07.484Z,75741.91
2019-04-16T00:15:41.037Z,75731.52
2019-04-16T00:18:08.081Z,75732.73
2019-04-16T00:20:39.144Z,75732.16
2019-04-16T00:23:10.189Z,75727.34
2019-04-16T00:25:39.654Z,75724.27
2019-04-16T00:28:09.158Z,75719.61
2019-04-16T00:30:38.645Z,75712.14
2019-04-16T00:33:10.708Z,75704.61
2019-04-16T00:35:39.331Z,75700.56
2019-04-16T00:38:08.796Z,75701.36
2019-04-16T00:40:38.263Z,75689.59
2019-04-16T00:43:07.892Z,75686.41
2019-04-16T00:45:37.324Z,75684.22
2019-04-16T00:48:06.879Z,75679.81
2019-04-16T00:50:36.367Z,75675.50
2019-04-16T00:53:08.346Z,75672.89
2019-04-16T00:55:37.043Z,75670.34
2019-04-16T00:58:06.555Z,75670.80
2019-04-16T01:00:36.016Z,75665.13
2019-04-16T01:03:05.492Z,75661.79
2019-04-16T01:05:35.253Z,75658.02
2019-04-16T01:08:05.547Z,75655.04
2019-04-16T01:10:35.010Z,75649.59
2019-04-16T01:13:04.547Z,75651.59
2019-04-16T01:15:34.101Z,75644.84
2019-04-16T01:18:04.572Z,75637.28
2019-04-16T01:20:34.841Z,75632.48
2019-04-16T01:23:04.291Z,75629.23
2019-04-16T01:25:33.753Z,75630.39
2019-04-16T01:28:13.656Z,75630.39
2019-04-16T01:30:56.675Z,75627.22
2019-04-16T01:33:27.880Z,75623.01
2019-04-16T01:35:58.919Z,75620.59
2019-04-16T01:38:36.026Z,75618.09
2019-04-16T01:41:07.075Z,75614.61
2019-04-16T01:43:36.552Z,75607.66
2019-04-16T01:46:06.185Z,75606.48
2019-04-16T01:48:38.652Z,75603.65
2019-04-16T01:51:06.896Z,75605.03
2019-04-16T01:53:36.399Z,75603.72
2019-04-16T01:56:05.861Z,75600.11
2019-04-16T01:58:35.760Z,75596.25
2019-04-16T02:01:08.055Z,75588.77
2019-04-16T02:03:36.734Z,75584.56
2019-04-16T02:06:06.157Z,75583.39
2019-04-16T02:08:35.627Z,75583.74
2019-04-16T02:11:09.728Z,75577.09
2019-04-16T02:13:36.294Z,75567.20
2019-04-16T02:16:05.844Z,75567.97
2019-04-16T02:18:35.303Z,75565.77
2019-04-16T02:21:09.625Z,75563.62
2019-04-16T02:23:36.002Z,75557.91
2019-04-16T02:26:05.471Z,75555.08
2019-04-16T02:28:34.958Z,75553.14
2019-04-16T02:31:04.641Z,75552.38
2019-04-16T02:33:34.266Z,75554.34
2019-04-16T02:36:03.773Z,75550.25
2019-04-16T02:38:33.280Z,75554.47
2019-04-16T02:41:02.738Z,75550.73
2019-04-16T02:43:39.663Z,75551.34
2019-04-16T02:46:03.420Z,75548.36
2019-04-16T02:48:32.885Z,75538.98
2019-04-16T02:51:07.260Z,75534.91
2019-04-16T02:53:36.700Z,75533.55
2019-04-16T02:56:17.057Z,75535.06
2019-04-16T02:58:58.179Z,75525.58
2019-04-16T03:01:29.544Z,75515.05
2019-04-16T03:04:00.575Z,75512.92
2019-04-16T03:06:31.880Z,75512.95
2019-04-16T03:09:01.272Z,75510.22
2019-04-16T03:11:30.955Z,75512.63
2019-04-16T03:14:00.417Z,75504.72
2019-04-16T03:16:40.658Z,75499.65
2019-04-16T03:19:11.794Z,75500.38
2019-04-16T03:21:41.251Z,75498.40
2019-04-16T03:24:10.911Z,75504.56
2019-04-16T03:26:40.561Z,75506.20
2019-04-16T03:29:10.105Z,75509.70
2019-04-16T03:31:39.702Z,75514.07
2019-04-16T03:34:09.181Z,75516.16
2019-04-16T03:36:38.639Z,75507.23
2019-04-16T03:39:11.980Z,75504.75
2019-04-16T03:41:39.412Z,75502.15
2019-04-16T03:44:08.878Z,75498.37
2019-04-16T03:46:40.115Z,75495.95
2019-04-16T03:49:09.592Z,75491.14
2019-04-16T03:51:39.460Z,75487.89
2019-04-16T03:54:08.945Z,75487.63
2019-04-16T03:56:38.404Z,75485.64
2019-04-16T03:59:11.817Z,75477.97
2019-04-16T04:01:39.132Z,75476.62
2019-04-16T04:04:08.833Z,75485.09
2019-04-16T04:06:39.400Z,75487.47
2019-04-16T04:09:09.803Z,75488.08
2019-04-16T04:11:41.155Z,75486.47
2019-04-16T04:14:10.543Z,75487.80
2019-04-16T04:16:40.444Z,75484.83
2019-04-16T04:19:14.018Z,75486.44
2019-04-16T04:21:41.121Z,75483.42
2019-04-16T04:24:10.586Z,75481.66
2019-04-16T04:26:42.000Z,75478.03
2019-04-16T04:29:11.297Z,75478.77
2019-04-16T04:31:40.760Z,75473.69
2019-04-16T04:34:11.040Z,75472.13
2019-04-16T04:36:41.439Z,75475.69
2019-04-16T04:39:14.950Z,75473.77
2019-04-16T04:41:42.154Z,75477.33
2019-04-16T04:44:12.014Z,75480.59
2019-04-16T04:46:43.208Z,75476.74
2019-04-16T04:49:12.870Z,75479.66
2019-04-16T04:51:43.510Z,75484.19
2019-04-16T04:54:13.351Z,75485.41
2019-04-16T04:56:42.806Z,75485.73
2019-04-16T04:59:12.301Z,75487.37
2019-04-16T05:01:42.602Z,75491.40
2019-04-16T05:04:20.386Z,75497.73
2019-04-16T05:06:49.634Z,75500.86
2019-04-16T05:09:19.152Z,75499.74
2019-04-16T05:11:49.600Z,75495.47
2019-04-16T05:14:19.380Z,75493.39
2019-04-16T05:16:48.839Z,75501.99
2019-04-16T05:19:18.314Z,75506.88
2019-04-16T05:21:50.081Z,75509.10
2019-04-16T05:24:18.994Z,75511.55
2019-04-16T05:26:48.448Z,75508.74
2019-04-16T05:29:18.661Z,75515.04
2019-04-16T05:31:48.288Z,75522.01
2019-04-16T05:34:18.410Z,75522.37
2019-04-16T05:36:48.256Z,75519.22
2019-04-16T05:39:17.776Z,75520.41
2019-04-16T05:41:47.259Z,75520.30
2019-04-16T05:44:16.754Z,75527.23
2019-04-16T05:46:46.846Z,75534.23
2019-04-16T05:49:16.611Z,75542.22
2019-04-16T05:51:45.990Z,75556.04
2019-04-16T05:54:32.305Z,75556.84
2019-04-16T05:57:25.642Z,75565.17
2019-04-16T05:59:53.096Z,75573.78
2019-04-16T06:02:24.221Z,75578.35
2019-04-16T06:04:55.840Z,75580.98
2019-04-16T06:07:24.951Z,75582.78
2019-04-16T06:09:54.379Z,75590.98
2019-04-16T06:12:25.451Z,75606.41
2019-04-16T06:14:56.584Z,75612.64
2019-04-16T06:17:32.131Z,75616.86
2019-04-16T06:20:09.104Z,75619.03
2019-04-16T06:22:40.169Z,75630.36
2019-04-16T06:25:27.589Z,75641.95
2019-04-16T06:28:14.927Z,75652.50
2019-04-16T06:30:49.014Z,75660.73
2019-04-16T06:33:20.046Z,75665.16
2019-04-16T06:35:54.247Z,75672.89
2019-04-16T06:38:25.288Z,75683.51
2019-04-16T06:41:03.348Z,75690.58
2019-04-16T06:43:47.994Z,75705.34
2019-04-16T06:46:21.815Z,75724.11
2019-04-16T06:48:52.862Z,75738.39
2019-04-16T06:51:44.542Z,75750.66
2019-04-16T06:54:32.769Z,75764.78
2019-04-16T06:57:19.167Z,75772.16
2019-04-16T06:59:52.712Z,75775.13
2019-04-16T07:02:43.123Z,75781.30
2019-04-16T07:05:17.332Z,75796.33
2019-04-16T07:08:04.497Z,75814.72
2019-04-16T07:10:44.640Z,75833.08
2019-04-16T07:13:11.171Z,75847.45
2019-04-16T07:15:41.018Z,75860.66
2019-04-16T07:18:10.504Z,75874.66
2019-04-16T07:20:42.248Z,75885.88
2019-04-16T07:23:11.160Z,75895.60
2019-04-16T07:25:43.315Z,75910.04
2019-04-16T07:28:16.380Z,75923.31
2019-04-16T07:30:47.588Z,75937.11
2019-04-16T07:33:34.388Z,75955.28
2019-04-16T07:36:07.962Z,75971.47
2019-04-16T07:38:45.059Z,75984.59
2019-04-16T07:41:19.145Z,76009.15
2019-04-16T07:44:10.228Z,76028.92
2019-04-16T07:46:38.010Z,76049.53
2019-04-16T07:49:26.547Z,76065.47
2019-04-16T07:52:07.804Z,76085.47
2019-04-16T07:54:45.495Z,76096.89
2019-04-16T07:57:15.008Z,76107.28
2019-04-16T07:59:44.472Z,76114.87
2019-04-16T08:02:13.903Z,76116.38
2019-04-16T08:04:43.375Z,76136.13
2019-04-16T08:07:12.847Z,76146.78
2019-04-16T08:09:42.261Z,76158.33
2019-04-16T08:12:28.987Z,76186.29
2019-04-16T08:14:42.941Z,76199.86
2019-04-16T08:17:12.423Z,76194.27
2019-04-16T08:19:44.784Z,76202.85
2019-04-16T08:22:15.938Z,76216.23
2019-04-16T08:24:48.963Z,76223.48
2019-04-16T08:27:19.483Z,76233.89
2019-04-16T08:29:49.196Z,76253.16
2019-04-16T08:32:18.763Z,76258.47
2019-04-16T08:34:48.239Z,76293.55
2019-04-16T08:37:17.677Z,76317.75
2019-04-16T08:39:47.173Z,76315.88
2019-04-16T08:42:16.649Z,76328.09
2019-04-16T08:44:46.122Z,76344.31
2019-04-16T08:47:15.627Z,76356.05
2019-04-16T08:49:45.091Z,76371.47
2019-04-16T08:52:14.557Z,76382.86
2019-04-16T08:54:44.058Z,76388.88
2019-04-16T08:57:13.530Z,76402.75
2019-04-16T08:59:43.341Z,76419.41
2019-04-16T09:02:13.092Z,76419.52
2019-04-16T09:04:42.567Z,76430.80
2019-04-16T09:07:19.599Z,76419.48
2019-04-16T09:09:57.046Z,76439.54
2019-04-16T09:12:23.745Z,76453.02
2019-04-16T09:14:55.971Z,76488.14
2019-04-16T09:17:26.073Z,76500.50
2019-04-16T09:19:57.137Z,76519.39
2019-04-16T09:22:26.607Z,76529.20
2019-04-16T09:24:57.730Z,76532.34
2019-04-16T09:27:31.062Z,76558.63
2019-04-16T09:30:16.938Z,76587.84
2019-04-16T09:33:00.927Z,76634.38
2019-04-16T09:35:31.679Z,76633.43
2019-04-16T09:38:02.746Z,76666.11
2019-04-16T09:40:49.807Z,76706.31
2019-04-16T09:43:20.848Z,76723.23
2019-04-16T09:45:50.327Z,76748.12
2019-04-16T09:48:20.126Z,76762.39
2019-04-16T09:50:49.785Z,76788.30
2019-04-16T09:53:32.241Z,76780.72
2019-04-16T09:55:51.212Z,76807.71
2019-04-16T09:58:22.914Z,76810.99
2019-04-16T10:00:59.675Z,76821.33
2019-04-16T10:03:36.623Z,76843.66
2019-04-16T10:06:06.132Z,76818.70
2019-04-16T10:08:35.626Z,76840.36
2019-04-16T10:11:06.241Z,76891.38
2019-04-16T10:13:36.528Z,76927.55
2019-04-16T10:16:05.972Z,76989.23
2019-04-16T10:18:36.003Z,76987.13
2019-04-16T10:21:05.800Z,76974.44
2019-04-16T10:23:52.988Z,76980.98
2019-04-16T10:26:22.488Z,77047.92
2019-04-16T10:28:51.983Z,77112.22
2019-04-16T10:31:26.107Z,77159.16
2019-04-16T10:33:55.619Z,77201.05
2019-04-16T10:36:25.096Z,77253.66
2019-04-16T10:38:56.158Z,77313.11
2019-04-16T10:41:29.949Z,77355.23
2019-04-16T10:44:01.023Z,77393.55
2019-04-16T10:46:48.470Z,77439.87
2019-04-16T10:49:34.559Z,77457.63
2019-04-16T10:52:22.410Z,77483.22
2019-04-16T10:55:05.923Z,77477.16
2019-04-16T10:57:55.402Z,77514.24
2019-04-16T11:00:38.773Z,77559.76
2019-04-16T11:03:18.528Z,77542.77
2019-04-16T11:05:56.756Z,77556.45
2019-04-16T11:08:23.480Z,77513.38
2019-04-16T11:10:53.063Z,77463.12
2019-04-16T11:13:26.835Z,77434.20
2019-04-16T11:15:58.005Z,77491.95
2019-04-16T11:18:27.508Z,77533.73
2019-04-16T11:20:57.012Z,77498.33
2019-04-16T11:23:26.539Z,77446.11
2019-04-16T11:25:56.063Z,77474.69
2019-04-16T11:28:25.571Z,77442.63
2019-04-16T11:30:56.712Z,77499.77
2019-04-16T11:33:27.678Z,77544.70
2019-04-16T11:35:57.455Z,77603.76
2019-04-16T11:38:26.958Z,77683.09
2019-04-16T11:40:56.455Z,77752.58
2019-04-16T11:43:26.072Z,77786.77
2019-04-16T11:45:55.615Z,77800.19
2019-04-16T11:48:25.154Z,77817.75
2019-04-16T11:50:54.683Z,77803.11
2019-04-16T11:53:24.210Z,77805.45
2019-04-16T11:55:53.753Z,77833.09
2019-04-16T11:58:39.993Z,77771.16
2019-04-16T12:01:14.078Z,77737.38
2019-04-16T12:03:57.217Z,77691.03
2019-04-16T12:06:44.605Z,77710.91
2019-04-16T12:09:18.540Z,77789.58
2019-04-16T12:11:52.369Z,77886.23
2019-04-16T12:14:32.310Z,78020.84
2019-04-16T12:16:58.909Z,78015.27
2019-04-16T12:19:30.012Z,78005.49
2019-04-16T12:22:01.063Z,78029.88
2019-04-16T12:24:35.465Z,78187.81
2019-04-16T12:27:06.557Z,78372.38
2019-04-16T12:29:46.904Z,78620.05
2019-04-16T12:32:27.459Z,78803.08
2019-04-16T12:35:02.037Z,78850.22
2019-04-16T12:37:50.133Z,79109.55
2019-04-16T12:40:27.155Z,79241.91
2019-04-16T12:43:14.662Z,79275.66
2019-04-16T12:45:43.014Z,79163.96
2019-04-16T12:48:14.217Z,79108.66
2019-04-16T12:50:45.306Z,79053.15
2019-04-16T12:53:16.453Z,79086.25
2019-04-16T12:55:53.427Z,79161.92
2019-04-16T12:58:40.839Z,79242.79
2019-04-16T13:01:19.793Z,79255.61
2019-04-16T13:03:52.577Z,79329.48
2019-04-16T13:06:27.178Z,79395.58
2019-04-16T13:09:00.945Z,79505.09
2019-04-16T13:11:40.783Z,79484.34
2019-04-16T13:14:11.850Z,79598.28
2019-04-16T13:16:57.801Z,79713.69
2019-04-16T13:19:31.590Z,79916.86
2019-04-16T13:22:01.059Z,79910.11
2019-04-16T13:24:32.098Z,79719.41
2019-04-16T13:27:03.175Z,79585.09
2019-04-16T13:29:32.956Z,79698.17
2019-04-16T13:32:02.431Z,79754.00
2019-04-16T13:34:32.027Z,79817.81
2019-04-16T13:37:01.510Z,79784.72
2019-04-16T13:39:32.537Z,79923.89
2019-04-16T13:42:01.985Z,80053.66
2019-04-16T13:44:41.918Z,79998.30
2019-04-16T13:47:11.421Z,79708.65
2019-04-16T13:49:42.467Z,79429.84
2019-04-16T13:52:11.935Z,79410.98
2019-04-16T13:54:42.997Z,79296.34
2019-04-16T13:57:14.036Z,79231.24
2019-04-16T14:00:04.348Z,79367.77
2019-04-16T14:02:35.957Z,79427.58
2019-04-16T14:05:10.015Z,79537.22
2019-04-16T14:07:37.454Z,79547.75
2019-04-16T14:10:07.631Z,79580.38
2019-04-16T14:12:42.224Z,79597.55
2019-04-16T14:15:10.828Z,79528.52
2019-04-16T14:17:52.544Z,79468.92
2019-04-16T14:20:12.822Z,79308.51
2019-04-16T14:22:42.701Z,79220.52
2019-04-16T14:25:12.235Z,79290.11
2019-04-16T14:27:41.820Z,79393.07
2019-04-16T14:30:15.860Z,79285.22
2019-04-16T14:32:54.021Z,79424.04
2019-04-16T14:35:33.174Z,79483.44
2019-04-16T14:37:56.618Z,79347.90
2019-04-16T14:40:26.514Z,79246.42
2019-04-16T14:42:57.724Z,78974.13
2019-04-16T14:45:28.909Z,78943.52
2019-04-16T14:47:58.395Z,78971.16
2019-04-16T14:50:27.881Z,78951.35
2019-04-16T14:52:57.635Z,78930.58
2019-04-16T14:55:28.662Z,78893.90
2019-04-16T14:58:17.721Z,78902.16
2019-04-16T15:00:51.742Z,78883.02
2019-04-16T15:03:43.022Z,78875.73
2019-04-16T15:06:12.066Z,78827.04
2019-04-16T15:09:01.121Z,78858.14
2019-04-16T15:11:48.310Z,78842.06
2019-04-16T15:14:19.517Z,78850.17
2019-04-16T15:17:11.965Z,78806.21
2019-04-16T15:19:53.297Z,78717.07
2019-04-16T15:22:42.552Z,78634.39
2019-04-16T15:25:16.828Z,78665.89
2019-04-16T15:27:50.829Z,78602.13
2019-04-16T15:30:22.127Z,78535.40
2019-04-16T15:32:58.915Z,78466.28
2019-04-16T15:35:32.951Z,78353.64
2019-04-16T15:38:09.845Z,78256.38
2019-04-16T15:40:41.010Z,78132.12
2019-04-16T15:43:19.593Z,78102.92
2019-04-16T15:46:25.060Z,78095.05
2019-04-16T15:48:58.717Z,78090.63
2019-04-16T15:51:48.062Z,78111.99
2019-04-16T15:54:35.881Z,78031.92
2019-04-16T15:57:23.243Z,77952.77
2019-04-16T16:00:03.434Z,77914.49
2019-04-16T16:02:50.579Z,77847.97
2019-04-16T16:05:21.647Z,77812.75
2019-04-16T16:08:05.161Z,77757.39
2019-04-16T16:10:36.263Z,77735.45
2019-04-16T16:13:05.895Z,77707.52
2019-04-16T16:15:40.209Z,77695.88
2019-04-16T16:18:07.004Z,77706.28
2019-04-16T16:20:36.483Z,77709.59
2019-04-16T16:23:06.122Z,77674.53
2019-04-16T16:25:35.754Z,77607.64
2019-04-16T16:28:06.828Z,77615.45
2019-04-16T16:30:36.320Z,77632.66
2019-04-16T16:33:05.811Z,77646.05
2019-04-16T16:35:35.689Z,77613.49
2019-04-16T16:38:05.194Z,77612.05
2019-04-16T16:40:34.705Z,77611.55
2019-04-16T16:43:07.226Z,77612.98
2019-04-16T16:45:52.379Z,77605.39
2019-04-16T16:48:22.952Z,77595.97
2019-04-16T16:50:52.687Z,77585.39
2019-04-16T16:53:23.767Z,77546.54
2019-04-16T16:55:54.715Z,77535.86
2019-04-16T16:58:25.899Z,77525.67
2019-04-16T17:01:14.061Z,77511.02
2019-04-16T17:03:45.404Z,77488.36
2019-04-16T17:06:16.591Z,77464.73
2019-04-16T17:08:46.298Z,77428.60
2019-04-16T17:11:17.067Z,77372.09
2019-04-16T17:13:47.037Z,77322.82
2019-04-16T17:16:16.569Z,77290.45
2019-04-16T17:18:46.050Z,77264.20
2019-04-16T17:21:15.533Z,77240.33
2019-04-16T17:23:45.036Z,77207.55
2019-04-16T17:26:16.066Z,77166.50
2019-04-16T17:28:45.721Z,77100.17
2019-04-16T17:31:15.784Z,77058.47
2019-04-16T17:33:45.207Z,77023.27
2019-04-16T17:36:14.891Z,76988.92
2019-04-16T17:38:44.412Z,76970.41
2019-04-16T17:41:15.470Z,76942.72
2019-04-16T17:43:59.670Z,76931.88
2019-04-16T17:46:35.415Z,76918.01
2019-04-16T17:49:06.529Z,76912.30
2019-04-16T17:51:53.925Z,76898.02
2019-04-16T17:54:36.940Z,76887.41
2019-04-16T17:57:22.921Z,76878.66
2019-04-16T18:00:00.496Z,76870.23
2019-04-16T18:02:47.653Z,76860.89
2019-04-16T18:05:24.705Z,76852.66
2019-04-16T18:08:07.990Z,76841.38
2019-04-16T18:10:44.955Z,76824.77
2019-04-16T18:13:16.114Z,76811.44
2019-04-16T18:15:47.172Z,76798.64
2019-04-16T18:18:27.399Z,76795.36
2019-04-16T18:21:04.368Z,76785.96
2019-04-16T18:23:35.672Z,76776.63
2019-04-16T18:26:24.625Z,76769.36
2019-04-16T18:28:55.855Z,76757.38
2019-04-16T18:31:27.526Z,76758.25
2019-04-16T18:34:16.472Z,76758.41
2019-04-16T18:36:59.311Z,76736.38
2019-04-16T18:39:37.108Z,76722.44
2019-04-16T18:42:12.790Z,76709.97
2019-04-16T18:44:59.933Z,76695.91
2019-04-16T18:47:34.177Z,76676.77
2019-04-16T18:50:05.556Z,76662.33
2019-04-16T18:52:36.598Z,76649.58
2019-04-16T18:55:07.637Z,76638.45
2019-04-16T18:57:38.416Z,76627.45
2019-04-16T19:00:10.436Z,76616.80
2019-04-16T19:02:42.155Z,76603.33
2019-04-16T19:05:11.590Z,76596.08
2019-04-16T19:07:41.067Z,76583.84
2019-04-16T19:10:10.874Z,76570.41
2019-04-16T19:12:40.355Z,76566.50
2019-04-16T19:15:09.917Z,76550.29
2019-04-16T19:17:39.444Z,76542.67
2019-04-16T19:20:11.802Z,76533.27
2019-04-16T19:22:42.959Z,76524.61
2019-04-16T19:25:12.472Z,76520.32
2019-04-16T19:27:41.898Z,76520.42
2019-04-16T19:30:12.012Z,76506.70
2019-04-16T19:32:41.519Z,76509.59
2019-04-16T19:35:16.903Z,76499.16
2019-04-16T19:37:42.219Z,76476.16
2019-04-16T19:40:11.713Z,76455.66
2019-04-16T19:42:41.492Z,76435.70
2019-04-16T19:45:11.994Z,76426.91
2019-04-16T19:47:42.862Z,76416.72
2019-04-16T19:50:12.398Z,76405.86
2019-04-16T19:52:45.521Z,76403.98
2019-04-16T19:55:13.415Z,76398.22
2019-04-16T19:57:42.967Z,76394.53
2019-04-16T20:00:12.666Z,76395.26
2019-04-16T20:02:42.576Z,76382.73
2019-04-16T20:05:15.370Z,76377.79
2019-04-16T20:07:44.625Z,76369.67
2019-04-16T20:10:14.265Z,76362.41
2019-04-16T20:12:43.748Z,76356.49
2019-04-16T20:15:13.226Z,76349.73
2019-04-16T20:17:42.737Z,76346.83
2019-04-16T20:20:12.215Z,76351.41
2019-04-16T20:22:41.925Z,76350.80
2019-04-16T20:25:12.077Z,76341.30
2019-04-16T20:27:41.484Z,76327.11
2019-04-16T20:30:12.566Z,76319.42
2019-04-16T20:32:42.544Z,76315.61
2019-04-16T20:35:17.734Z,76309.67
2019-04-16T20:37:43.583Z,76294.67
2019-04-16T20:40:14.631Z,76280.13
2019-04-16T20:42:44.474Z,76284.73
2019-04-16T20:45:13.982Z,76285.50
2019-04-16T20:47:43.870Z,76283.37
2019-04-16T20:50:13.840Z,76283.08
2019-04-16T20:52:43.382Z,76275.68
2019-04-16T20:55:15.651Z,76270.48
2019-04-16T20:57:44.077Z,76263.79
2019-04-16T21:00:15.152Z,76258.23
2019-04-16T21:02:44.622Z,76253.75
2019-04-16T21:05:22.045Z,76260.07
2019-04-16T21:07:47.157Z,76259.45
2019-04-16T21:10:17.130Z,76254.39
2019-04-16T21:12:46.752Z,76255.27
2019-04-16T21:15:17.035Z,76254.30
2019-04-16T21:17:46.538Z,76253.03
2019-04-16T21:20:19.335Z,76250.81
2019-04-16T21:22:47.683Z,76248.84
2019-04-16T21:25:17.428Z,76247.64
2019-04-16T21:27:54.532Z,76241.73
2019-04-16T21:30:24.352Z,76239.31
2019-04-16T21:33:14.180Z,76232.84
2019-04-16T21:35:48.252Z,76225.94
2019-04-16T21:38:19.338Z,76218.99
2019-04-16T21:40:48.828Z,76215.16
2019-04-16T21:43:18.333Z,76212.02
2019-04-16T21:45:48.265Z,76210.73
2019-04-16T21:48:18.469Z,76203.69
2019-04-16T21:50:48.447Z,76200.23
2019-04-16T21:53:18.248Z,76201.66
2019-04-16T21:55:48.194Z,76195.78
2019-04-16T21:58:18.341Z,76191.29
2019-04-16T22:00:52.301Z,76188.93
2019-04-16T22:03:25.716Z,76185.62
2019-04-16T22:05:54.949Z,76175.70
2019-04-16T22:08:29.432Z,76163.14
2019-04-16T22:10:55.908Z,76159.69
2019-04-16T22:13:25.454Z,76154.58
2019-04-16T22:15:57.316Z,76146.46
2019-04-16T22:18:25.716Z,76143.94
2019-04-16T22:20:55.046Z,76136.20
2019-04-16T22:23:24.381Z,76131.83
2019-04-16T22:25:57.069Z,76129.13
2019-04-16T22:28:24.927Z,76121.25
2019-04-16T22:30:54.118Z,76122.19
2019-04-16T22:33:23.322Z,76119.48
2019-04-16T22:35:52.802Z,76113.98
2019-04-16T22:38:22.279Z,76110.67
2019-04-16T22:40:59.612Z,76105.67
2019-04-16T22:43:39.632Z,76094.98
2019-04-16T22:46:12.057Z,76091.16
2019-04-16T22:48:43.115Z,76088.86
2019-04-16T22:51:12.593Z,76087.58
2019-04-16T22:53:42.097Z,76086.16
2019-04-16T22:56:11.559Z,76075.98
2019-04-16T22:58:50.746Z,76072.12
2019-04-16T23:01:24.483Z,76067.13
2019-04-16T23:03:54.541Z,76066.70
2019-04-16T23:06:24.245Z,76074.63
2019-04-16T23:08:53.799Z,76069.86
2019-04-16T23:11:24.461Z,76064.34
2019-04-16T23:13:54.273Z,76061.47
2019-04-16T23:16:23.746Z,76060.08
2019-04-16T23:18:53.379Z,76056.79
2019-04-16T23:21:22.898Z,76051.51
2019-04-16T23:23:52.571Z,76043.25
2019-04-16T23:26:22.042Z,76031.89
2019-04-16T23:28:51.559Z,76028.41
2019-04-16T23:31:22.689Z,76028.61
2019-04-16T23:33:52.427Z,76026.93
2019-04-16T23:36:21.945Z,76024.31
2019-04-16T23:38:51.892Z,76029.80
2019-04-16T23:41:21.371Z,76031.59
2019-04-16T23:43:53.602Z,76027.90
2019-04-16T23:46:41.415Z,76021.57
2019-04-16T23:49:28.852Z,76020.13
2019-04-16T23:52:03.066Z,76010.55
2019-04-16T23:54:48.868Z,76008.39
2019-04-16T23:57:24.944Z,76003.83
